sensor_id;sensor_type;location;lat;lon;timestamp;temperature;humidity
28608;DHT22;15802;45.654;13.804;2023-05-16T00:00:06;16.20;99.90
28608;DHT22;15802;45.654;13.804;2023-05-16T00:02:34;16.10;99.90
28608;DHT22;15802;45.654;13.804;2023-05-16T00:05:00;16.00;99.90
28608;DHT22;15802;45.654;13.804;2023-05-16T00:07:26;15.90;99.90
28608;DHT22;15802;45.654;13.804;2023-05-16T00:09:52;15.90;99.90
28608;DHT22;15802;45.654;13.804;2023-05-16T00:12:17;15.80;99.90
28608;DHT22;15802;45.654;13.804;2023-05-16T00:14:44;15.80;99.90
28608;DHT22;15802;45.654;13.804;2023-05-16T00:17:09;15.60;99.90
28608;DHT22;15802;45.654;13.804;2023-05-16T00:19:36;15.60;99.90
28608;DHT22;15802;45.654;13.804;2023-05-16T00:22:04;15.50;99.90
28608;DHT22;15802;45.654;13.804;2023-05-16T00:24:29;15.60;99.90
28608;DHT22;15802;45.654;13.804;2023-05-16T00:26:55;15.60;99.90
28608;DHT22;15802;45.654;13.804;2023-05-16T00:29:21;15.50;99.90
28608;DHT22;15802;45.654;13.804;2023-05-16T00:31:48;15.60;99.90
28608;DHT22;15802;45.654;13.804;2023-05-16T00:34:14;15.50;99.90
28608;DHT22;15802;45.654;13.804;2023-05-16T00:36:40;15.50;99.90
28608;DHT22;15802;45.654;13.804;2023-05-16T00:39:06;15.50;99.90
28608;DHT22;15802;45.654;13.804;2023-05-16T00:41:32;15.50;99.90
28608;DHT22;15802;45.654;13.804;2023-05-16T00:43:58;15.50;99.90
28608;DHT22;15802;45.654;13.804;2023-05-16T00:46:24;15.50;99.90
28608;DHT22;15802;45.654;13.804;2023-05-16T00:48:49;15.60;99.90
28608;DHT22;15802;45.654;13.804;2023-05-16T00:51:16;15.60;99.90
28608;DHT22;15802;45.654;13.804;2023-05-16T00:53:41;15.60;99.90
28608;DHT22;15802;45.654;13.804;2023-05-16T00:56:07;15.60;99.90
28608;DHT22;15802;45.654;13.804;2023-05-16T00:58:33;15.70;99.90
28608;DHT22;15802;45.654;13.804;2023-05-16T01:00:59;15.70;99.90
28608;DHT22;15802;45.654;13.804;2023-05-16T01:03:28;15.70;99.90
28608;DHT22;15802;45.654;13.804;2023-05-16T01:05:54;15.70;99.90
28608;DHT22;15802;45.654;13.804;2023-05-16T01:08:20;15.80;99.90
28608;DHT22;15802;45.654;13.804;2023-05-16T01:10:52;15.80;99.90
28608;DHT22;15802;45.654;13.804;2023-05-16T01:13:26;15.80;99.90
28608;DHT22;15802;45.654;13.804;2023-05-16T01:15:59;16.00;99.90
28608;DHT22;15802;45.654;13.804;2023-05-16T01:18:36;16.00;99.90
28608;DHT22;15802;45.654;13.804;2023-05-16T01:21:06;16.10;99.90
28608;DHT22;15802;45.654;13.804;2023-05-16T01:26:21;16.20;99.90
28608;DHT22;15802;45.654;13.804;2023-05-16T01:28:48;16.30;99.90
28608;DHT22;15802;45.654;13.804;2023-05-16T01:31:14;16.40;99.90
28608;DHT22;15802;45.654;13.804;2023-05-16T01:33:41;16.40;99.90
28608;DHT22;15802;45.654;13.804;2023-05-16T01:36:12;16.50;99.90
28608;DHT22;15802;45.654;13.804;2023-05-16T01:38:48;16.60;99.90
28608;DHT22;15802;45.654;13.804;2023-05-16T01:41:24;16.60;99.90
28608;DHT22;15802;45.654;13.804;2023-05-16T01:43:53;16.50;99.90
28608;DHT22;15802;45.654;13.804;2023-05-16T01:46:21;16.60;99.90
28608;DHT22;15802;45.654;13.804;2023-05-16T01:48:51;16.60;99.90
28608;DHT22;15802;45.654;13.804;2023-05-16T01:51:19;16.60;99.90
28608;DHT22;15802;45.654;13.804;2023-05-16T01:53:46;16.70;99.90
28608;DHT22;15802;45.654;13.804;2023-05-16T01:56:14;16.70;99.90
28608;DHT22;15802;45.654;13.804;2023-05-16T01:58:40;16.70;99.90
28608;DHT22;15802;45.654;13.804;2023-05-16T02:01:06;16.80;99.90
28608;DHT22;15802;45.654;13.804;2023-05-16T02:03:32;16.80;99.90
28608;DHT22;15802;45.654;13.804;2023-05-16T02:05:58;16.80;99.90
28608;DHT22;15802;45.654;13.804;2023-05-16T02:08:24;16.90;99.90
28608;DHT22;15802;45.654;13.804;2023-05-16T02:10:51;16.90;99.90
28608;DHT22;15802;45.654;13.804;2023-05-16T02:13:16;16.90;99.90
28608;DHT22;15802;45.654;13.804;2023-05-16T02:15:42;16.90;99.90
28608;DHT22;15802;45.654;13.804;2023-05-16T02:18:08;16.90;99.90
28608;DHT22;15802;45.654;13.804;2023-05-16T02:20:34;16.90;99.90
28608;DHT22;15802;45.654;13.804;2023-05-16T02:23:00;16.90;99.90
28608;DHT22;15802;45.654;13.804;2023-05-16T02:25:27;16.90;99.90
28608;DHT22;15802;45.654;13.804;2023-05-16T02:27:53;16.90;99.90
28608;DHT22;15802;45.654;13.804;2023-05-16T02:30:19;16.90;99.90
28608;DHT22;15802;45.654;13.804;2023-05-16T02:32:44;16.80;99.90
28608;DHT22;15802;45.654;13.804;2023-05-16T02:35:10;16.80;99.90
28608;DHT22;15802;45.654;13.804;2023-05-16T02:37:36;16.70;99.90
28608;DHT22;15802;45.654;13.804;2023-05-16T02:40:02;16.70;99.90
28608;DHT22;15802;45.654;13.804;2023-05-16T02:42:30;16.70;99.90
28608;DHT22;15802;45.654;13.804;2023-05-16T02:44:56;16.70;99.90
28608;DHT22;15802;45.654;13.804;2023-05-16T02:47:22;16.80;99.90
28608;DHT22;15802;45.654;13.804;2023-05-16T02:49:48;16.70;99.90
28608;DHT22;15802;45.654;13.804;2023-05-16T02:52:13;16.60;99.90
28608;DHT22;15802;45.654;13.804;2023-05-16T02:54:39;16.60;99.90
28608;DHT22;15802;45.654;13.804;2023-05-16T02:57:04;16.60;99.90
28608;DHT22;15802;45.654;13.804;2023-05-16T02:59:30;16.60;99.90
28608;DHT22;15802;45.654;13.804;2023-05-16T03:01:56;16.60;99.90
28608;DHT22;15802;45.654;13.804;2023-05-16T03:04:22;16.60;99.90
28608;DHT22;15802;45.654;13.804;2023-05-16T03:06:48;16.60;99.90
28608;DHT22;15802;45.654;13.804;2023-05-16T03:09:15;16.70;99.90
28608;DHT22;15802;45.654;13.804;2023-05-16T03:11:41;16.60;99.90
28608;DHT22;15802;45.654;13.804;2023-05-16T03:14:06;16.50;99.90
28608;DHT22;15802;45.654;13.804;2023-05-16T03:16:32;16.50;99.90
28608;DHT22;15802;45.654;13.804;2023-05-16T03:18:58;16.50;99.90
28608;DHT22;15802;45.654;13.804;2023-05-16T03:21:24;16.50;99.90
28608;DHT22;15802;45.654;13.804;2023-05-16T03:23:50;16.40;99.90
28608;DHT22;15802;45.654;13.804;2023-05-16T03:26:15;16.40;99.90
28608;DHT22;15802;45.654;13.804;2023-05-16T03:28:41;16.40;99.90
28608;DHT22;15802;45.654;13.804;2023-05-16T03:31:07;16.40;99.90
28608;DHT22;15802;45.654;13.804;2023-05-16T03:33:33;16.40;99.90
28608;DHT22;15802;45.654;13.804;2023-05-16T03:35:58;16.50;99.90
28608;DHT22;15802;45.654;13.804;2023-05-16T03:38:24;16.40;99.90
28608;DHT22;15802;45.654;13.804;2023-05-16T03:40:49;16.40;99.90
28608;DHT22;15802;45.654;13.804;2023-05-16T03:43:15;16.40;99.90
28608;DHT22;15802;45.654;13.804;2023-05-16T03:45:41;16.30;99.90
28608;DHT22;15802;45.654;13.804;2023-05-16T03:48:07;16.10;99.90
28608;DHT22;15802;45.654;13.804;2023-05-16T03:50:33;16.10;99.90
28608;DHT22;15802;45.654;13.804;2023-05-16T03:52:59;16.10;99.90
28608;DHT22;15802;45.654;13.804;2023-05-16T03:55:25;16.10;99.90
28608;DHT22;15802;45.654;13.804;2023-05-16T03:57:50;16.10;99.90
28608;DHT22;15802;45.654;13.804;2023-05-16T04:00:17;16.10;99.90
28608;DHT22;15802;45.654;13.804;2023-05-16T04:02:43;16.10;99.90
28608;DHT22;15802;45.654;13.804;2023-05-16T04:05:09;16.00;99.90
28608;DHT22;15802;45.654;13.804;2023-05-16T04:07:35;16.10;99.90
28608;DHT22;15802;45.654;13.804;2023-05-16T04:10:01;16.00;99.90
28608;DHT22;15802;45.654;13.804;2023-05-16T04:12:27;16.10;99.90
28608;DHT22;15802;45.654;13.804;2023-05-16T04:14:53;16.00;99.90
28608;DHT22;15802;45.654;13.804;2023-05-16T04:17:19;16.00;99.90
28608;DHT22;15802;45.654;13.804;2023-05-16T04:19:44;15.90;99.90
28608;DHT22;15802;45.654;13.804;2023-05-16T04:22:10;15.80;99.90
28608;DHT22;15802;45.654;13.804;2023-05-16T04:24:36;15.80;99.90
28608;DHT22;15802;45.654;13.804;2023-05-16T04:27:02;15.70;99.90
28608;DHT22;15802;45.654;13.804;2023-05-16T04:29:29;15.70;99.90
28608;DHT22;15802;45.654;13.804;2023-05-16T04:31:55;15.70;99.90
28608;DHT22;15802;45.654;13.804;2023-05-16T04:34:21;15.70;99.90
28608;DHT22;15802;45.654;13.804;2023-05-16T04:36:52;15.70;99.90
28608;DHT22;15802;45.654;13.804;2023-05-16T04:39:21;15.60;99.90
28608;DHT22;15802;45.654;13.804;2023-05-16T04:41:47;15.60;99.90
28608;DHT22;15802;45.654;13.804;2023-05-16T04:44:12;15.80;99.90
28608;DHT22;15802;45.654;13.804;2023-05-16T04:46:38;15.80;99.90
28608;DHT22;15802;45.654;13.804;2023-05-16T04:49:04;15.90;99.90
28608;DHT22;15802;45.654;13.804;2023-05-16T04:51:30;15.90;99.90
28608;DHT22;15802;45.654;13.804;2023-05-16T04:53:58;16.00;99.90
28608;DHT22;15802;45.654;13.804;2023-05-16T04:56:24;16.00;99.90
28608;DHT22;15802;45.654;13.804;2023-05-16T04:58:51;16.10;99.90
28608;DHT22;15802;45.654;13.804;2023-05-16T05:01:16;16.10;99.90
28608;DHT22;15802;45.654;13.804;2023-05-16T05:03:42;16.20;99.90
28608;DHT22;15802;45.654;13.804;2023-05-16T05:06:07;16.10;99.90
28608;DHT22;15802;45.654;13.804;2023-05-16T05:08:33;16.10;99.90
28608;DHT22;15802;45.654;13.804;2023-05-16T05:11:01;16.10;99.90
28608;DHT22;15802;45.654;13.804;2023-05-16T05:13:27;16.20;99.90
28608;DHT22;15802;45.654;13.804;2023-05-16T05:15:52;16.10;99.90
28608;DHT22;15802;45.654;13.804;2023-05-16T05:18:18;16.20;99.90
28608;DHT22;15802;45.654;13.804;2023-05-16T05:20:44;16.10;99.90
28608;DHT22;15802;45.654;13.804;2023-05-16T05:23:09;16.00;99.90
28608;DHT22;15802;45.654;13.804;2023-05-16T05:25:35;16.00;99.90
28608;DHT22;15802;45.654;13.804;2023-05-16T05:28:01;16.00;99.90
28608;DHT22;15802;45.654;13.804;2023-05-16T05:30:26;16.00;99.90
28608;DHT22;15802;45.654;13.804;2023-05-16T05:32:53;16.10;99.90
28608;DHT22;15802;45.654;13.804;2023-05-16T05:35:19;16.10;99.90
28608;DHT22;15802;45.654;13.804;2023-05-16T05:37:45;16.10;99.90
28608;DHT22;15802;45.654;13.804;2023-05-16T05:40:11;16.20;99.90
28608;DHT22;15802;45.654;13.804;2023-05-16T05:42:36;16.30;99.90
28608;DHT22;15802;45.654;13.804;2023-05-16T05:45:02;16.30;99.90
28608;DHT22;15802;45.654;13.804;2023-05-16T05:47:28;16.40;99.90
28608;DHT22;15802;45.654;13.804;2023-05-16T05:49:53;16.40;99.90
28608;DHT22;15802;45.654;13.804;2023-05-16T05:52:19;16.60;99.90
28608;DHT22;15802;45.654;13.804;2023-05-16T05:54:46;16.60;99.90
28608;DHT22;15802;45.654;13.804;2023-05-16T05:57:12;16.60;99.90
28608;DHT22;15802;45.654;13.804;2023-05-16T05:59:37;16.50;99.90
28608;DHT22;15802;45.654;13.804;2023-05-16T06:02:03;16.60;99.90
28608;DHT22;15802;45.654;13.804;2023-05-16T06:04:29;16.60;99.90
28608;DHT22;15802;45.654;13.804;2023-05-16T06:06:54;16.50;99.90
28608;DHT22;15802;45.654;13.804;2023-05-16T06:09:20;16.50;99.90
28608;DHT22;15802;45.654;13.804;2023-05-16T06:11:46;16.50;99.90
28608;DHT22;15802;45.654;13.804;2023-05-16T06:14:13;16.50;99.90
28608;DHT22;15802;45.654;13.804;2023-05-16T06:16:38;16.60;99.90
28608;DHT22;15802;45.654;13.804;2023-05-16T06:19:04;16.60;99.90
28608;DHT22;15802;45.654;13.804;2023-05-16T06:21:30;16.60;99.90
28608;DHT22;15802;45.654;13.804;2023-05-16T06:23:57;16.60;99.90
28608;DHT22;15802;45.654;13.804;2023-05-16T06:26:23;16.70;99.90
28608;DHT22;15802;45.654;13.804;2023-05-16T06:28:48;16.60;99.90
28608;DHT22;15802;45.654;13.804;2023-05-16T06:31:14;16.60;99.90
28608;DHT22;15802;45.654;13.804;2023-05-16T06:33:40;16.50;99.90
28608;DHT22;15802;45.654;13.804;2023-05-16T06:36:06;16.50;99.90
28608;DHT22;15802;45.654;13.804;2023-05-16T06:38:32;16.50;99.90
28608;DHT22;15802;45.654;13.804;2023-05-16T06:40:57;16.40;99.90
28608;DHT22;15802;45.654;13.804;2023-05-16T06:43:23;16.40;99.90
28608;DHT22;15802;45.654;13.804;2023-05-16T06:45:49;16.30;99.90
28608;DHT22;15802;45.654;13.804;2023-05-16T06:48:16;16.10;99.90
28608;DHT22;15802;45.654;13.804;2023-05-16T06:50:45;16.00;99.90
28608;DHT22;15802;45.654;13.804;2023-05-16T06:53:11;15.90;99.90
28608;DHT22;15802;45.654;13.804;2023-05-16T06:55:37;15.80;99.90
28608;DHT22;15802;45.654;13.804;2023-05-16T06:58:02;15.70;99.90
28608;DHT22;15802;45.654;13.804;2023-05-16T07:00:29;15.70;99.90
28608;DHT22;15802;45.654;13.804;2023-05-16T07:02:54;15.60;99.90
28608;DHT22;15802;45.654;13.804;2023-05-16T07:05:20;15.40;99.90
28608;DHT22;15802;45.654;13.804;2023-05-16T07:07:46;15.30;99.90
28608;DHT22;15802;45.654;13.804;2023-05-16T07:10:13;15.20;99.90
28608;DHT22;15802;45.654;13.804;2023-05-16T07:12:40;15.20;99.90
28608;DHT22;15802;45.654;13.804;2023-05-16T07:15:06;15.20;99.90
28608;DHT22;15802;45.654;13.804;2023-05-16T07:17:32;15.40;99.90
28608;DHT22;15802;45.654;13.804;2023-05-16T07:19:58;15.50;99.90
28608;DHT22;15802;45.654;13.804;2023-05-16T07:22:24;15.60;99.90
28608;DHT22;15802;45.654;13.804;2023-05-16T07:24:50;15.70;99.90
28608;DHT22;15802;45.654;13.804;2023-05-16T07:27:17;15.70;99.90
28608;DHT22;15802;45.654;13.804;2023-05-16T07:29:43;15.90;99.90
28608;DHT22;15802;45.654;13.804;2023-05-16T07:32:08;16.00;99.90
28608;DHT22;15802;45.654;13.804;2023-05-16T07:34:34;15.90;99.90
28608;DHT22;15802;45.654;13.804;2023-05-16T07:37:00;15.80;99.90
28608;DHT22;15802;45.654;13.804;2023-05-16T07:39:25;15.90;99.90
28608;DHT22;15802;45.654;13.804;2023-05-16T07:41:51;16.00;99.90
28608;DHT22;15802;45.654;13.804;2023-05-16T07:44:17;16.10;99.90
28608;DHT22;15802;45.654;13.804;2023-05-16T07:49:40;16.60;99.90
28608;DHT22;15802;45.654;13.804;2023-05-16T07:54:56;16.90;99.90
28608;DHT22;15802;45.654;13.804;2023-05-16T07:57:22;17.00;99.90
28608;DHT22;15802;45.654;13.804;2023-05-16T07:59:48;17.20;99.90
28608;DHT22;15802;45.654;13.804;2023-05-16T08:02:19;17.20;99.90
28608;DHT22;15802;45.654;13.804;2023-05-16T08:04:45;17.30;99.90
28608;DHT22;15802;45.654;13.804;2023-05-16T08:07:10;17.20;99.90
28608;DHT22;15802;45.654;13.804;2023-05-16T08:09:36;17.20;99.90
28608;DHT22;15802;45.654;13.804;2023-05-16T08:12:02;17.20;99.90
28608;DHT22;15802;45.654;13.804;2023-05-16T08:14:29;17.10;99.90
28608;DHT22;15802;45.654;13.804;2023-05-16T08:16:57;17.10;99.90
28608;DHT22;15802;45.654;13.804;2023-05-16T08:19:22;17.00;99.90
28608;DHT22;15802;45.654;13.804;2023-05-16T08:21:48;17.10;99.90
28608;DHT22;15802;45.654;13.804;2023-05-16T08:24:14;17.10;99.90
28608;DHT22;15802;45.654;13.804;2023-05-16T08:26:40;17.10;99.90
28608;DHT22;15802;45.654;13.804;2023-05-16T08:29:06;17.00;99.90
28608;DHT22;15802;45.654;13.804;2023-05-16T08:31:31;16.90;99.90
28608;DHT22;15802;45.654;13.804;2023-05-16T08:33:59;16.90;99.90
28608;DHT22;15802;45.654;13.804;2023-05-16T08:36:26;16.90;99.90
28608;DHT22;15802;45.654;13.804;2023-05-16T08:38:52;17.00;99.90
28608;DHT22;15802;45.654;13.804;2023-05-16T08:41:18;17.10;99.90
28608;DHT22;15802;45.654;13.804;2023-05-16T08:43:44;17.10;99.90
28608;DHT22;15802;45.654;13.804;2023-05-16T08:46:12;17.00;99.90
28608;DHT22;15802;45.654;13.804;2023-05-16T08:48:41;17.10;99.90
28608;DHT22;15802;45.654;13.804;2023-05-16T08:51:07;17.10;99.90
28608;DHT22;15802;45.654;13.804;2023-05-16T08:53:40;17.20;99.90
28608;DHT22;15802;45.654;13.804;2023-05-16T08:56:08;17.30;99.90
28608;DHT22;15802;45.654;13.804;2023-05-16T08:58:35;17.30;99.90
28608;DHT22;15802;45.654;13.804;2023-05-16T09:01:03;17.40;99.90
28608;DHT22;15802;45.654;13.804;2023-05-16T09:03:34;17.40;99.90
28608;DHT22;15802;45.654;13.804;2023-05-16T09:06:00;17.40;99.90
28608;DHT22;15802;45.654;13.804;2023-05-16T09:08:26;17.30;99.90
28608;DHT22;15802;45.654;13.804;2023-05-16T09:10:52;17.30;99.90
28608;DHT22;15802;45.654;13.804;2023-05-16T09:13:18;17.20;99.90
28608;DHT22;15802;45.654;13.804;2023-05-16T09:15:44;17.10;99.90
28608;DHT22;15802;45.654;13.804;2023-05-16T09:18:11;17.10;99.90
28608;DHT22;15802;45.654;13.804;2023-05-16T09:20:42;17.10;99.90
28608;DHT22;15802;45.654;13.804;2023-05-16T09:23:07;17.00;99.90
28608;DHT22;15802;45.654;13.804;2023-05-16T09:25:41;17.00;99.90
28608;DHT22;15802;45.654;13.804;2023-05-16T09:28:09;17.00;99.90
28608;DHT22;15802;45.654;13.804;2023-05-16T09:30:36;17.10;99.90
28608;DHT22;15802;45.654;13.804;2023-05-16T09:33:05;17.10;99.90
28608;DHT22;15802;45.654;13.804;2023-05-16T09:35:33;17.10;99.90
28608;DHT22;15802;45.654;13.804;2023-05-16T09:37:59;17.10;99.90
28608;DHT22;15802;45.654;13.804;2023-05-16T09:40:25;17.20;99.90
28608;DHT22;15802;45.654;13.804;2023-05-16T09:42:53;17.10;99.90
28608;DHT22;15802;45.654;13.804;2023-05-16T09:45:26;16.90;99.90
28608;DHT22;15802;45.654;13.804;2023-05-16T09:47:52;16.70;99.90
28608;DHT22;15802;45.654;13.804;2023-05-16T09:50:18;16.70;99.90
28608;DHT22;15802;45.654;13.804;2023-05-16T09:52:43;16.70;99.90
28608;DHT22;15802;45.654;13.804;2023-05-16T09:55:09;16.60;99.90
28608;DHT22;15802;45.654;13.804;2023-05-16T09:57:38;16.50;99.90
28608;DHT22;15802;45.654;13.804;2023-05-16T10:00:06;16.40;99.90
28608;DHT22;15802;45.654;13.804;2023-05-16T10:02:34;16.30;99.90
28608;DHT22;15802;45.654;13.804;2023-05-16T10:08:06;16.20;99.90
28608;DHT22;15802;45.654;13.804;2023-05-16T10:10:35;16.20;99.90
28608;DHT22;15802;45.654;13.804;2023-05-16T10:13:00;16.10;99.90
28608;DHT22;15802;45.654;13.804;2023-05-16T10:15:29;16.20;99.90
28608;DHT22;15802;45.654;13.804;2023-05-16T10:17:55;16.20;99.90
28608;DHT22;15802;45.654;13.804;2023-05-16T10:20:24;16.30;99.90
28608;DHT22;15802;45.654;13.804;2023-05-16T10:22:51;16.30;99.90
28608;DHT22;15802;45.654;13.804;2023-05-16T10:53:21;15.80;99.90
28608;DHT22;15802;45.654;13.804;2023-05-16T10:56:21;15.70;99.90
28608;DHT22;15802;45.654;13.804;2023-05-16T10:58:51;15.70;99.90
28608;DHT22;15802;45.654;13.804;2023-05-16T11:01:23;15.70;99.90
28608;DHT22;15802;45.654;13.804;2023-05-16T11:04:02;15.70;99.90
28608;DHT22;15802;45.654;13.804;2023-05-16T11:06:34;15.70;99.90
28608;DHT22;15802;45.654;13.804;2023-05-16T11:09:07;15.60;99.90
28608;DHT22;15802;45.654;13.804;2023-05-16T11:11:46;15.70;99.90
28608;DHT22;15802;45.654;13.804;2023-05-16T11:14:21;15.60;99.90
28608;DHT22;15802;45.654;13.804;2023-05-16T11:16:59;15.50;99.90
28608;DHT22;15802;45.654;13.804;2023-05-16T11:19:29;15.50;99.90
28608;DHT22;15802;45.654;13.804;2023-05-16T11:27:28;15.60;99.90
28608;DHT22;15802;45.654;13.804;2023-05-16T11:29:57;15.70;99.90
28608;DHT22;15802;45.654;13.804;2023-05-16T11:32:26;15.60;99.90
28608;DHT22;15802;45.654;13.804;2023-05-16T11:34:52;15.60;99.90
28608;DHT22;15802;45.654;13.804;2023-05-16T11:37:21;15.60;99.90
28608;DHT22;15802;45.654;13.804;2023-05-16T11:39:50;15.50;99.90
28608;DHT22;15802;45.654;13.804;2023-05-16T11:42:16;15.70;99.90
28608;DHT22;15802;45.654;13.804;2023-05-16T11:44:47;15.70;99.90
28608;DHT22;15802;45.654;13.804;2023-05-16T11:47:13;15.80;99.90
28608;DHT22;15802;45.654;13.804;2023-05-16T11:49:41;15.80;99.90
28608;DHT22;15802;45.654;13.804;2023-05-16T11:52:07;15.90;99.90
28608;DHT22;15802;45.654;13.804;2023-05-16T11:54:33;16.00;99.90
28608;DHT22;15802;45.654;13.804;2023-05-16T11:56:59;16.00;99.90
28608;DHT22;15802;45.654;13.804;2023-05-16T11:59:26;16.10;99.90
28608;DHT22;15802;45.654;13.804;2023-05-16T12:01:51;16.20;99.90
28608;DHT22;15802;45.654;13.804;2023-05-16T12:04:17;16.20;99.90
28608;DHT22;15802;45.654;13.804;2023-05-16T12:06:49;16.20;99.90
28608;DHT22;15802;45.654;13.804;2023-05-16T12:09:22;16.20;99.90
28608;DHT22;15802;45.654;13.804;2023-05-16T12:11:47;16.10;99.90
28608;DHT22;15802;45.654;13.804;2023-05-16T12:14:13;16.00;99.90
28608;DHT22;15802;45.654;13.804;2023-05-16T12:16:39;15.90;99.90
28608;DHT22;15802;45.654;13.804;2023-05-16T12:19:08;15.70;99.90
28608;DHT22;15802;45.654;13.804;2023-05-16T12:21:34;15.70;99.90
28608;DHT22;15802;45.654;13.804;2023-05-16T12:24:00;15.70;99.90
28608;DHT22;15802;45.654;13.804;2023-05-16T12:26:26;15.70;99.90
28608;DHT22;15802;45.654;13.804;2023-05-16T12:28:56;15.60;99.90
28608;DHT22;15802;45.654;13.804;2023-05-16T12:31:25;15.60;99.90
28608;DHT22;15802;45.654;13.804;2023-05-16T12:33:52;15.50;99.90
28608;DHT22;15802;45.654;13.804;2023-05-16T12:36:19;15.50;99.90
28608;DHT22;15802;45.654;13.804;2023-05-16T12:38:45;15.50;99.90
28608;DHT22;15802;45.654;13.804;2023-05-16T12:41:16;15.40;99.90
28608;DHT22;15802;45.654;13.804;2023-05-16T12:43:41;15.30;99.90
28608;DHT22;15802;45.654;13.804;2023-05-16T12:46:08;15.30;99.90
28608;DHT22;15802;45.654;13.804;2023-05-16T12:48:34;15.20;99.90
28608;DHT22;15802;45.654;13.804;2023-05-16T12:51:17;15.30;99.90
28608;DHT22;15802;45.654;13.804;2023-05-16T12:53:44;15.30;99.90
28608;DHT22;15802;45.654;13.804;2023-05-16T12:56:10;15.40;99.90
28608;DHT22;15802;45.654;13.804;2023-05-16T12:58:37;15.40;99.90
28608;DHT22;15802;45.654;13.804;2023-05-16T13:01:03;15.60;99.90
28608;DHT22;15802;45.654;13.804;2023-05-16T13:03:28;15.70;99.90
28608;DHT22;15802;45.654;13.804;2023-05-16T13:05:54;15.80;99.90
28608;DHT22;15802;45.654;13.804;2023-05-16T13:08:20;15.80;99.90
28608;DHT22;15802;45.654;13.804;2023-05-16T13:10:46;15.80;99.90
28608;DHT22;15802;45.654;13.804;2023-05-16T13:13:12;15.80;99.90
28608;DHT22;15802;45.654;13.804;2023-05-16T13:15:39;15.80;99.90
28608;DHT22;15802;45.654;13.804;2023-05-16T13:18:05;15.80;99.90
28608;DHT22;15802;45.654;13.804;2023-05-16T13:20:30;15.80;99.90
28608;DHT22;15802;45.654;13.804;2023-05-16T13:22:56;15.80;99.90
28608;DHT22;15802;45.654;13.804;2023-05-16T13:25:22;15.80;99.90
28608;DHT22;15802;45.654;13.804;2023-05-16T13:27:48;15.80;99.90
28608;DHT22;15802;45.654;13.804;2023-05-16T13:30:14;15.80;99.90
28608;DHT22;15802;45.654;13.804;2023-05-16T13:32:40;15.80;99.90
28608;DHT22;15802;45.654;13.804;2023-05-16T13:35:06;15.80;99.90
28608;DHT22;15802;45.654;13.804;2023-05-16T13:37:32;15.70;99.90
28608;DHT22;15802;45.654;13.804;2023-05-16T13:39:57;15.60;99.90
28608;DHT22;15802;45.654;13.804;2023-05-16T13:42:23;15.60;99.90
28608;DHT22;15802;45.654;13.804;2023-05-16T13:44:49;15.50;99.90
28608;DHT22;15802;45.654;13.804;2023-05-16T13:47:15;15.30;99.90
28608;DHT22;15802;45.654;13.804;2023-05-16T13:49:41;15.20;99.90
28608;DHT22;15802;45.654;13.804;2023-05-16T13:52:06;15.00;99.90
28608;DHT22;15802;45.654;13.804;2023-05-16T13:54:32;15.00;99.90
28608;DHT22;15802;45.654;13.804;2023-05-16T13:56:58;15.20;99.90
28608;DHT22;15802;45.654;13.804;2023-05-16T13:59:24;15.20;99.90
28608;DHT22;15802;45.654;13.804;2023-05-16T14:01:50;15.30;99.90
28608;DHT22;15802;45.654;13.804;2023-05-16T14:04:15;15.40;99.90
28608;DHT22;15802;45.654;13.804;2023-05-16T14:06:41;15.30;99.90
28608;DHT22;15802;45.654;13.804;2023-05-16T14:09:06;15.30;99.90
28608;DHT22;15802;45.654;13.804;2023-05-16T14:11:32;15.40;99.90
28608;DHT22;15802;45.654;13.804;2023-05-16T14:13:58;15.40;99.90
28608;DHT22;15802;45.654;13.804;2023-05-16T14:16:24;15.40;99.90
28608;DHT22;15802;45.654;13.804;2023-05-16T14:18:50;15.50;99.90
28608;DHT22;15802;45.654;13.804;2023-05-16T14:21:16;15.60;99.90
28608;DHT22;15802;45.654;13.804;2023-05-16T14:23:41;15.50;99.90
28608;DHT22;15802;45.654;13.804;2023-05-16T14:26:10;15.50;99.90
28608;DHT22;15802;45.654;13.804;2023-05-16T14:28:35;15.50;99.90
28608;DHT22;15802;45.654;13.804;2023-05-16T14:33:30;15.60;99.90
28608;DHT22;15802;45.654;13.804;2023-05-16T14:35:57;15.80;99.90
28608;DHT22;15802;45.654;13.804;2023-05-16T14:38:22;15.80;99.90
28608;DHT22;15802;45.654;13.804;2023-05-16T14:40:48;15.80;99.90
28608;DHT22;15802;45.654;13.804;2023-05-16T14:43:14;16.00;99.90
28608;DHT22;15802;45.654;13.804;2023-05-16T14:45:41;16.00;99.90
28608;DHT22;15802;45.654;13.804;2023-05-16T14:48:06;16.10;99.90
28608;DHT22;15802;45.654;13.804;2023-05-16T14:50:32;16.20;99.90
28608;DHT22;15802;45.654;13.804;2023-05-16T14:52:58;16.20;99.90
28608;DHT22;15802;45.654;13.804;2023-05-16T14:55:24;16.20;99.90
28608;DHT22;15802;45.654;13.804;2023-05-16T14:57:50;16.30;99.90
28608;DHT22;15802;45.654;13.804;2023-05-16T15:00:16;16.40;99.90
28608;DHT22;15802;45.654;13.804;2023-05-16T15:02:42;16.40;99.90
28608;DHT22;15802;45.654;13.804;2023-05-16T15:05:07;16.40;99.90
28608;DHT22;15802;45.654;13.804;2023-05-16T15:07:33;16.40;99.90
28608;DHT22;15802;45.654;13.804;2023-05-16T15:09:59;16.30;99.90
28608;DHT22;15802;45.654;13.804;2023-05-16T15:12:26;16.30;99.90
28608;DHT22;15802;45.654;13.804;2023-05-16T15:14:52;16.20;99.90
28608;DHT22;15802;45.654;13.804;2023-05-16T15:17:17;16.20;99.90
28608;DHT22;15802;45.654;13.804;2023-05-16T15:19:43;16.10;99.90
28608;DHT22;15802;45.654;13.804;2023-05-16T15:22:09;16.10;99.90
28608;DHT22;15802;45.654;13.804;2023-05-16T15:24:35;16.10;99.90
28608;DHT22;15802;45.654;13.804;2023-05-16T15:27:01;16.20;99.90
28608;DHT22;15802;45.654;13.804;2023-05-16T15:29:28;16.20;99.90
28608;DHT22;15802;45.654;13.804;2023-05-16T15:31:54;16.20;99.90
28608;DHT22;15802;45.654;13.804;2023-05-16T15:34:20;16.20;99.90
28608;DHT22;15802;45.654;13.804;2023-05-16T15:36:48;16.30;99.90
28608;DHT22;15802;45.654;13.804;2023-05-16T15:39:17;16.40;99.90
28608;DHT22;15802;45.654;13.804;2023-05-16T15:41:42;16.50;99.90
28608;DHT22;15802;45.654;13.804;2023-05-16T15:44:08;16.40;99.90
28608;DHT22;15802;45.654;13.804;2023-05-16T15:46:33;16.40;99.90
28608;DHT22;15802;45.654;13.804;2023-05-16T15:48:59;16.40;99.90
28608;DHT22;15802;45.654;13.804;2023-05-16T15:51:25;16.40;99.90
28608;DHT22;15802;45.654;13.804;2023-05-16T15:53:51;16.40;99.90
28608;DHT22;15802;45.654;13.804;2023-05-16T15:56:16;16.30;99.90
28608;DHT22;15802;45.654;13.804;2023-05-16T15:58:42;16.30;99.90